Folk, Missouri
Current Conditions -  °F | °C
As of 10:53 PM on Monday 20 Oct 2014 (Local Time) from KJEF Reporting Station
Clear Clear  
Wind Chill: 50°   Ceiling: Unl
Heat Index: 50°   Visibility: 10mi
Dew Point: 45°   Wind: 3mph
Humidity: 83%   Direction: 310°NW
Pressure: 30.06"   Gusts: NA
Location:  38.4046°N, 92.0758°W
Report Text: KJEF 210353Z AUTO 31003KT 10SM CLR 10/07 A3006 RMK AO2 SLP168 T01000072
Loading
Personal Weather Stations






























Interactive Weather Map
Tropical Storm Tracking
New forecast layout! Learn more

10-Day Weather Forecast

Advertisements
Track Severe Weather on mobile